Time;durP1;ratioP1;P1;durP2;ratioP2;P2;SDS_P1;SDS_P2;PMS_P1;PMS_P2;Temp;Humidity;BMP_temperature;BMP_pressure;BME280_temperature;BME280_humidity;BME280_pressure;Samples;Min_cycle;Max_cycle;Signal;HPM_P1;HPM_P2
2022/05/14 00:01:58;;;;;;;9.98;8.98;;;;;;;13.32;100.00;96832.25;5068750;28;20068;-50
2022/05/14 00:04:27;;;;;;;19.25;9.80;;;;;;;13.06;100.00;96830.31;5069330;28;20074;-49
2022/05/14 00:06:55;;;;;;;12.00;10.13;;;;;;;13.30;100.00;96831.53;5065182;28;20526;-52
2022/05/14 00:09:23;;;;;;;14.60;11.27;;;;;;;13.51;100.00;96821.44;5062198;28;20064;-49
2022/05/14 00:14:38;;;;;;;12.05;10.43;;;;;;;13.40;100.00;96827.00;5063276;28;20418;-49
2022/05/14 00:17:07;;;;;;;17.80;12.13;;;;;;;13.46;100.00;96821.09;5067995;28;20072;-52
2022/05/14 00:19:35;;;;;;;16.63;11.63;;;;;;;13.33;100.00;96822.47;5069984;28;20079;-49
2022/05/14 00:22:04;;;;;;;16.92;13.50;;;;;;;13.58;100.00;96820.84;5073139;28;20068;-48
2022/05/14 00:24:32;;;;;;;19.08;14.15;;;;;;;13.52;100.00;96830.22;5070365;28;20071;-47
2022/05/14 00:27:01;;;;;;;14.63;13.13;;;;;;;13.41;100.00;96817.22;5054506;28;20060;-57
2022/05/14 00:29:30;;;;;;;17.27;14.18;;;;;;;13.58;100.00;96823.50;5066677;28;20079;-49
2022/05/14 00:31:59;;;;;;;16.37;13.37;;;;;;;13.39;100.00;96817.41;5052818;28;20072;-51
2022/05/14 00:34:28;;;;;;;14.90;13.30;;;;;;;13.43;100.00;96821.41;5065838;28;20083;-51
2022/05/14 00:37:00;;;;;;;17.27;13.87;;;;;;;13.64;100.00;96815.75;5063783;28;20040;-56
2022/05/14 00:39:28;;;;;;;18.52;12.43;;;;;;;13.62;100.00;96814.25;5065020;28;21043;-50
2022/05/14 00:41:57;;;;;;;14.73;12.35;;;;;;;13.57;100.00;96819.19;5063664;28;20075;-50
2022/05/14 00:44:25;;;;;;;16.35;12.05;;;;;;;13.61;100.00;96815.22;5064265;28;20162;-51
2022/05/14 00:46:59;;;;;;;16.85;12.43;;;;;;;13.61;100.00;96813.41;5065990;28;20052;-56
2022/05/14 00:49:30;;;;;;;19.13;13.27;;;;;;;13.68;100.00;96809.16;5067149;28;20534;-51
2022/05/14 00:51:59;;;;;;;15.38;13.10;;;;;;;13.65;100.00;96814.75;5063684;28;20079;-48
2022/05/14 00:54:37;;;;;;;17.20;11.90;;;;;;;13.60;100.00;96808.28;5065603;28;20496;-53
2022/05/14 00:57:08;;;;;;;15.15;11.80;;;;;;;13.60;100.00;96817.06;5065338;28;20064;-55
2022/05/14 00:59:37;;;;;;;14.07;12.38;;;;;;;13.50;100.00;96801.25;5059987;28;20072;-48
2022/05/14 01:02:06;;;;;;;15.00;11.23;;;;;;;13.42;100.00;96803.00;5061534;28;20065;-55
2022/05/14 01:04:35;;;;;;;15.48;11.82;;;;;;;13.22;100.00;96813.75;5066511;28;20103;-47
2022/05/14 01:07:07;;;;;;;14.18;11.45;;;;;;;13.30;100.00;96813.00;5065834;28;20084;-52
2022/05/14 01:09:38;;;;;;;18.38;13.07;;;;;;;13.45;100.00;96808.81;5064566;28;20064;-50
2022/05/14 01:12:07;;;;;;;19.02;13.68;;;;;;;13.40;100.00;96815.56;5063863;28;20068;-49
2022/05/14 01:14:36;;;;;;;16.42;13.68;;;;;;;13.40;100.00;96808.44;5063973;28;20056;-53
2022/05/14 01:17:04;;;;;;;20.92;14.90;;;;;;;13.38;100.00;96805.13;5064527;28;20087;-49
2022/05/14 01:19:33;;;;;;;17.65;15.02;;;;;;;13.14;100.00;96804.88;5064567;28;20095;-50
2022/05/14 01:22:11;;;;;;;16.05;13.70;;;;;;;13.26;100.00;96807.19;5062804;28;20534;-52
2022/05/14 01:27:32;;;;;;;17.15;12.35;;;;;;;12.80;100.00;96797.59;5065104;28;20083;-48
2022/05/14 01:30:01;;;;;;;18.70;12.63;;;;;;;12.85;100.00;96798.00;5061575;28;20071;-49
2022/05/14 01:32:29;;;;;;;19.17;13.05;;;;;;;12.86;100.00;96807.59;5062414;28;20490;-49
2022/05/14 01:34:57;;;;;;;14.85;12.50;;;;;;;13.08;100.00;96806.34;5062183;28;20068;-46
2022/05/14 01:37:25;;;;;;;16.50;13.27;;;;;;;13.12;100.00;96801.56;5064892;28;20084;-58
2022/05/14 01:39:54;;;;;;;15.63;13.95;;;;;;;13.10;100.00;96801.69;5063790;28;20084;-50
2022/05/14 01:42:22;;;;;;;18.55;14.40;;;;;;;12.96;100.00;96804.88;5063666;28;20094;-48
2022/05/14 01:44:52;;;;;;;17.63;14.27;;;;;;;12.96;100.00;96799.59;5065786;28;20056;-55
2022/05/14 01:47:20;;;;;;;18.40;14.20;;;;;;;13.05;100.00;96799.53;5063559;28;20280;-49
2022/05/14 01:49:48;;;;;;;14.23;12.65;;;;;;;12.98;100.00;96793.16;5057653;28;20527;-54
2022/05/14 01:52:17;;;;;;;15.02;13.43;;;;;;;13.02;100.00;96788.41;5061921;28;20300;-54
2022/05/14 01:54:45;;;;;;;14.90;12.32;;;;;;;12.82;100.00;96787.72;5065946;28;20088;-51
2022/05/14 01:57:13;;;;;;;14.38;12.75;;;;;;;13.00;100.00;96795.66;5061937;28;20086;-49
2022/05/14 01:59:41;;;;;;;14.80;11.95;;;;;;;12.92;100.00;96790.28;5063411;28;20072;-51
2022/05/14 02:02:11;;;;;;;15.00;12.43;;;;;;;12.83;100.00;96792.00;5059117;28;20146;-51
2022/05/14 02:04:40;;;;;;;15.40;12.10;;;;;;;13.08;100.00;96787.81;5062986;28;20067;-48
2022/05/14 02:07:08;;;;;;;76.55;14.32;;;;;;;13.10;100.00;96785.00;5064006;28;20095;-48
2022/05/14 02:09:36;;;;;;;64.63;12.95;;;;;;;12.97;100.00;96788.00;5061335;28;21003;-49
2022/05/14 02:12:05;;;;;;;13.35;10.07;;;;;;;12.92;100.00;96785.00;5061432;28;20064;-49
2022/05/14 02:14:34;;;;;;;10.27;8.60;;;;;;;12.74;100.00;96785.81;5059838;28;20431;-52
2022/05/14 02:17:03;;;;;;;10.00;9.00;;;;;;;12.51;100.00;96790.69;5058612;28;20507;-47
2022/05/14 02:19:33;;;;;;;10.45;8.07;;;;;;;12.42;100.00;96793.41;5061181;28;20060;-51
2022/05/14 02:22:01;;;;;;;9.07;8.18;;;;;;;12.65;100.00;96797.28;5062958;28;20095;-48
2022/05/14 02:24:30;;;;;;;9.77;8.88;;;;;;;12.70;100.00;96788.94;5060275;28;20064;-48
2022/05/14 02:26:59;;;;;;;10.80;9.73;;;;;;;12.76;100.00;96797.06;5061994;28;20083;-51
2022/05/14 02:29:27;;;;;;;11.68;10.20;;;;;;;12.55;100.00;96788.59;5060244;28;20075;-49
2022/05/14 02:31:55;;;;;;;11.00;9.90;;;;;;;12.56;100.00;96782.34;5064177;28;20400;-48
2022/05/14 02:34:24;;;;;;;11.48;9.68;;;;;;;12.47;100.00;96788.50;5064155;28;20143;-50
2022/05/14 02:36:53;;;;;;;11.18;9.02;;;;;;;12.57;100.00;96789.28;5059662;28;20084;-50
2022/05/14 02:39:21;;;;;;;9.95;8.95;;;;;;;12.67;100.00;96791.88;5062717;28;20060;-48
2022/05/14 02:41:50;;;;;;;10.88;9.00;;;;;;;12.54;100.00;96794.88;5058896;28;20518;-50
2022/05/14 02:44:18;;;;;;;10.32;8.93;;;;;;;12.80;100.00;96795.81;5062259;28;20083;-50
2022/05/14 02:46:46;;;;;;;10.90;9.80;;;;;;;12.68;100.00;96793.53;5064028;28;20397;-53
2022/05/14 02:49:15;;;;;;;13.00;10.13;;;;;;;12.84;100.00;96796.34;5061705;28;20096;-53
2022/05/14 02:51:43;;;;;;;11.30;10.02;;;;;;;12.93;100.00;96790.13;5063014;28;20084;-49
2022/05/14 02:54:12;;;;;;;10.95;9.82;;;;;;;12.94;100.00;96786.53;5062682;28;20044;-51
2022/05/14 02:56:41;;;;;;;14.27;10.75;;;;;;;12.75;100.00;96790.13;5061880;28;20075;-49
2022/05/14 02:59:09;;;;;;;9.63;8.73;;;;;;;12.81;100.00;96789.53;5062167;28;20079;-52
2022/05/14 03:01:47;;;;;;;8.60;7.65;;;;;;;12.57;100.00;96787.47;5060544;28;20543;-53
2022/05/14 03:04:17;;;;;;;8.95;8.15;;;;;;;12.47;100.00;96788.50;5062069;28;20088;-54
2022/05/14 03:06:46;;;;;;;9.88;8.98;;;;;;;12.58;100.00;96789.13;5063642;28;20079;-51
2022/05/14 03:09:15;;;;;;;10.05;9.05;;;;;;;12.82;100.00;96788.53;5058288;28;20078;-55
2022/05/14 03:11:43;;;;;;;11.10;9.33;;;;;;;12.82;100.00;96780.59;5061464;28;20546;-51
2022/05/14 03:14:12;;;;;;;10.68;9.68;;;;;;;12.88;100.00;96789.75;5059815;28;20071;-46
2022/05/14 03:16:41;;;;;;;11.13;10.02;;;;;;;13.06;100.00;96789.75;5061184;28;20061;-47
2022/05/14 03:19:09;;;;;;;10.40;9.35;;;;;;;13.05;100.00;96788.94;5064525;28;20088;-54
2022/05/14 03:21:38;;;;;;;11.77;9.85;;;;;;;13.04;100.00;96789.94;5061749;28;21376;-54
2022/05/14 03:24:07;;;;;;;11.50;10.10;;;;;;;12.63;100.00;96793.13;5063456;28;20079;-52
2022/05/14 03:26:37;;;;;;;10.45;9.45;;;;;;;12.70;100.00;96794.22;5062973;28;20468;-47
2022/05/14 03:29:05;;;;;;;10.40;9.37;;;;;;;12.35;100.00;96801.94;5063376;28;20071;-50
2022/05/14 03:31:33;;;;;;;9.77;8.88;;;;;;;12.54;100.00;96802.81;5060976;28;20079;-48
2022/05/14 03:34:03;;;;;;;9.32;8.43;;;;;;;12.69;100.00;96798.66;5060606;28;20044;-49
2022/05/14 03:36:31;;;;;;;9.07;8.13;;;;;;;12.60;100.00;96804.88;5059118;28;20079;-55
2022/05/14 03:38:59;;;;;;;9.27;7.18;;;;;;;12.63;100.00;96811.66;5064056;28;20076;-48
2022/05/14 03:41:28;;;;;;;8.18;7.38;;;;;;;12.77;100.00;96808.53;5063350;28;20064;-46
2022/05/14 03:43:58;;;;;;;8.40;7.60;;;;;;;12.91;100.00;96808.00;5061458;28;20076;-53
2022/05/14 03:46:27;;;;;;;9.35;8.45;;;;;;;12.93;100.00;96811.31;5058896;28;20076;-48
2022/05/14 03:48:55;;;;;;;9.70;8.70;;;;;;;12.98;100.00;96810.88;5063698;28;20072;-49
2022/05/14 03:51:23;;;;;;;9.10;8.20;;;;;;;13.18;100.00;96811.53;5061164;28;20605;-50
2022/05/14 03:53:52;;;;;;;10.05;9.05;;;;;;;13.18;100.00;96815.03;5056846;28;20056;-53
2022/05/14 03:56:20;;;;;;;11.60;9.23;;;;;;;13.29;100.00;96816.66;5064046;28;20048;-51
2022/05/14 03:58:48;;;;;;;11.38;9.32;;;;;;;13.37;100.00;96806.09;5063923;28;20064;-51
2022/05/14 04:01:18;;;;;;;9.85;8.85;;;;;;;13.61;100.00;96808.09;5061928;28;20076;-48
2022/05/14 04:03:47;;;;;;;;;;;;;;;13.80;100.00;96819.50;5059179;28;20102;-49
2022/05/14 04:06:15;;;;;;;9.65;8.40;;;;;;;13.35;100.00;96809.88;5060794;28;19947;-50
2022/05/14 04:08:44;;;;;;;10.77;9.43;;;;;;;13.16;100.00;96810.88;5061979;28;20067;-51
2022/05/14 04:11:12;;;;;;;10.25;8.98;;;;;;;13.39;100.00;96817.41;5057769;28;20479;-55
2022/05/14 04:13:41;;;;;;;10.75;9.55;;;;;;;13.37;100.00;96810.56;5063291;28;20139;-52
2022/05/14 04:16:09;;;;;;;11.27;9.90;;;;;;;13.65;100.00;96813.94;5069002;28;20516;-55
2022/05/14 04:18:39;;;;;;;10.88;8.80;;;;;;;13.72;100.00;96813.16;5065605;28;20491;-47
2022/05/14 04:21:07;;;;;;;12.82;9.57;;;;;;;13.52;100.00;96812.53;5069297;28;20060;-49
2022/05/14 04:23:35;;;;;;;10.13;9.05;;;;;;;13.30;100.00;96811.19;5069293;28;20143;-49
2022/05/14 04:26:04;;;;;;;12.75;10.52;;;;;;;13.42;100.00;96816.22;5063415;28;20101;-56
2022/05/14 04:28:33;;;;;;;11.50;10.25;;;;;;;13.67;100.00;96812.78;5062707;28;20523;-47
2022/05/14 04:31:01;;;;;;;11.48;9.60;;;;;;;14.46;100.00;96808.25;5065569;28;20511;-49
2022/05/14 04:33:29;;;;;;;11.90;10.65;;;;;;;14.91;100.00;96807.06;5062856;28;20072;-55
2022/05/14 04:35:59;;;;;;;10.13;8.27;;;;;;;15.06;100.00;96804.59;5065182;28;20186;-51
2022/05/14 04:38:27;;;;;;;11.68;8.80;;;;;;;14.82;100.00;96810.69;5061373;28;20617;-49
2022/05/14 04:40:56;;;;;;;11.35;9.23;;;;;;;14.91;100.00;96818.53;5059036;28;20069;-52
2022/05/14 04:43:24;;;;;;;10.85;9.90;;;;;;;16.11;100.00;96819.69;5060587;28;20553;-50
2022/05/14 04:45:52;;;;;;;10.25;9.20;;;;;;;16.74;100.00;96810.00;5065439;28;20162;-51
2022/05/14 04:48:21;;;;;;;10.38;9.30;;;;;;;17.55;100.00;96805.13;5064177;28;20044;-52
2022/05/14 04:50:49;;;;;;;8.40;7.60;;;;;;;17.25;100.00;96805.00;5064041;28;20064;-53
2022/05/14 04:53:19;;;;;;;9.63;8.25;;;;;;;17.62;100.00;96800.72;5064775;28;20072;-46
2022/05/14 04:55:50;;;;;;;9.27;7.80;;;;;;;17.70;100.00;96805.16;5062772;28;20060;-50
2022/05/14 04:58:18;;;;;;;10.02;7.30;;;;;;;17.38;100.00;96799.09;5064656;28;20460;-47
2022/05/14 05:00:47;;;;;;;8.43;7.32;;;;;;;17.49;100.00;96803.16;5062953;28;20075;-51
2022/05/14 05:03:17;;;;;;;8.85;7.95;;;;;;;17.35;100.00;96810.09;5063023;28;20059;-50
2022/05/14 05:05:45;;;;;;;9.80;8.90;;;;;;;16.56;100.00;96812.06;5061825;28;20073;-55
2022/05/14 05:08:14;;;;;;;9.70;8.75;;;;;;;16.96;100.00;96813.69;5066507;28;20548;-50
2022/05/14 05:10:43;;;;;;;10.18;9.20;;;;;;;17.16;100.00;96805.25;5064202;28;20079;-53
2022/05/14 05:13:15;;;;;;;10.38;9.18;;;;;;;16.90;100.00;96819.75;5064645;28;20487;-58
2022/05/14 05:15:44;;;;;;;11.07;9.98;;;;;;;16.90;100.00;96811.75;5063323;28;20095;-50
2022/05/14 05:18:13;;;;;;;10.65;9.65;;;;;;;16.98;100.00;96814.34;5065419;28;20069;-49
2022/05/14 05:20:43;;;;;;;10.98;9.73;;;;;;;17.10;100.00;96814.75;5064630;28;20068;-49
2022/05/14 05:23:14;;;;;;;10.88;9.88;;;;;;;17.32;100.00;96815.78;5061007;28;20072;-48
2022/05/14 05:25:43;;;;;;;;;;;;;;;17.55;100.00;96807.78;5060884;28;20065;-56
2022/05/14 05:28:11;;;;;;;9.93;8.93;;;;;;;16.30;100.00;96822.97;5065642;28;19966;-53
2022/05/14 05:30:40;;;;;;;11.20;8.90;;;;;;;16.59;100.00;96825.84;5065183;28;20081;-53
2022/05/14 05:33:11;;;;;;;10.77;9.70;;;;;;;17.09;100.00;96815.78;5064847;28;20542;-53
2022/05/14 05:35:39;;;;;;;9.32;8.50;;;;;;;17.05;100.00;96819.81;5065011;28;20064;-53
2022/05/14 05:38:07;;;;;;;9.85;8.93;;;;;;;17.36;100.00;96826.94;5064952;28;20174;-50
2022/05/14 05:40:51;;;;;;;9.75;8.05;;;;;;;18.13;100.00;96824.91;5064238;28;20083;-52
2022/05/14 05:43:30;;;;;;;8.40;7.60;;;;;;;18.16;100.00;96824.56;5053098;28;21976;-53
2022/05/14 05:45:59;;;;;;;10.20;7.82;;;;;;;17.78;100.00;96821.94;5063186;28;20081;-52
2022/05/14 05:48:27;;;;;;;9.35;7.78;;;;;;;17.25;100.00;96831.66;5063309;28;20083;-53
2022/05/14 05:50:55;;;;;;;9.60;8.23;;;;;;;18.40;100.00;96825.31;5065170;28;20522;-52
2022/05/14 05:56:46;;;;;;;10.43;8.23;;;;;;;18.33;100.00;96827.06;5065473;28;20068;-56
2022/05/14 05:58:59;;;;;;;11.02;8.68;;;;;;;17.89;100.00;96834.00;5062315;28;20529;-53
2022/05/14 06:01:27;;;;;;;11.40;8.70;;;;;;;18.11;100.00;96840.31;5064869;28;20091;-51
2022/05/14 06:03:56;;;;;;;11.35;8.90;;;;;;;17.84;100.00;96827.56;5068637;28;20088;-55
2022/05/14 06:06:25;;;;;;;9.98;8.70;;;;;;;17.58;100.00;96834.06;5065370;28;20065;-54
2022/05/14 06:08:54;;;;;;;12.80;9.65;;;;;;;17.15;100.00;96830.25;5066102;28;20075;-48
2022/05/14 06:11:22;;;;;;;10.82;9.73;;;;;;;17.52;100.00;96837.47;5065859;28;20092;-48
2022/05/14 06:13:50;;;;;;;11.32;9.60;;;;;;;17.98;100.00;96835.59;5064854;28;20449;-53
2022/05/14 06:16:20;;;;;;;11.00;9.88;;;;;;;18.24;100.00;96832.50;5066434;28;20079;-53
2022/05/14 06:18:48;;;;;;;11.25;9.70;;;;;;;18.48;100.00;96839.41;5067756;28;20776;-52
2022/05/14 06:21:17;;;;;;;11.63;9.60;;;;;;;18.37;100.00;96837.16;5065929;28;20075;-51
2022/05/14 06:23:45;;;;;;;11.50;8.75;;;;;;;18.07;100.00;96847.03;5061235;28;20072;-52
2022/05/14 06:26:13;;;;;;;9.70;8.63;;;;;;;19.16;100.00;96832.00;5063123;28;20079;-53
2022/05/14 06:28:41;;;;;;;9.70;8.68;;;;;;;19.35;100.00;96829.75;5065350;28;20079;-53
2022/05/14 06:31:10;;;;;;;10.18;8.52;;;;;;;19.04;100.00;96830.88;5066912;28;20083;-51
2022/05/14 06:33:39;;;;;;;9.57;8.57;;;;;;;19.39;100.00;96839.88;5061659;28;20379;-55
2022/05/14 06:36:08;;;;;;;10.00;7.63;;;;;;;19.39;100.00;96831.00;5062775;28;20060;-53
2022/05/14 06:38:36;;;;;;;11.45;8.43;;;;;;;18.78;100.00;96834.03;5062508;28;20490;-52
2022/05/14 06:41:05;;;;;;;10.88;8.15;;;;;;;19.36;100.00;96831.41;5057054;28;20080;-50
2022/05/14 06:43:33;;;;;;;12.60;8.00;;;;;;;20.28;100.00;96827.84;5065200;28;20083;-54
2022/05/14 06:46:02;;;;;;;12.05;8.35;;;;;;;19.65;100.00;96827.81;5062001;28;20068;-52
2022/05/14 06:48:32;;;;;;;10.30;7.40;;;;;;;19.60;100.00;96832.84;5065152;28;20182;-55
2022/05/14 06:51:03;;;;;;;9.25;6.97;;;;;;;19.53;100.00;96830.13;5064626;28;20071;-53
2022/05/14 06:53:32;;;;;;;10.48;6.78;;;;;;;20.36;100.00;96825.81;5061170;28;20091;-55
2022/05/14 06:56:00;;;;;;;9.55;7.30;;;;;;;19.57;100.00;96831.38;5060374;28;20064;-48
2022/05/14 06:58:32;;;;;;;13.35;7.60;;;;;;;19.64;100.00;96829.63;5061265;28;20084;-51
2022/05/14 07:01:00;;;;;;;8.93;7.50;;;;;;;19.49;100.00;96836.06;5063695;28;20088;-55
2022/05/14 07:09:04;;;;;;;10.38;7.13;;;;;;;20.71;100.00;96833.03;5058942;28;20568;-49
2022/05/14 07:11:34;;;;;;;9.85;7.00;;;;;;;21.22;100.00;96827.25;5061291;28;20068;-52
2022/05/14 07:14:02;;;;;;;9.95;7.20;;;;;;;20.97;100.00;96843.88;5064750;28;20450;-49
2022/05/14 07:16:31;;;;;;;9.88;6.75;;;;;;;21.46;100.00;96828.56;5062838;28;20098;-57
2022/05/14 07:18:59;;;;;;;8.50;7.07;;;;;;;20.80;100.00;96830.00;5062825;28;20069;-51
2022/05/14 07:21:31;;;;;;;9.00;7.00;;;;;;;21.78;100.00;96835.84;5060132;28;20078;-55
2022/05/14 07:24:02;;;;;;;8.32;6.70;;;;;;;21.01;100.00;96838.94;5063078;28;20702;-51
2022/05/14 07:26:31;;;;;;;;;;;;;;;21.39;100.00;96830.41;5061361;28;20094;-57
2022/05/14 07:29:00;;;;;;;12.00;7.38;;;;;;;21.88;100.00;96826.53;5062114;28;19952;-51
2022/05/14 07:31:29;;;;;;;9.13;6.30;;;;;;;21.84;100.00;96828.81;5058491;28;20087;-54
2022/05/14 07:33:58;;;;;;;8.30;5.57;;;;;;;21.84;100.00;96831.50;5062183;28;20106;-53
2022/05/14 07:36:27;;;;;;;9.05;5.82;;;;;;;21.95;100.00;96828.16;5059799;28;20064;-50
2022/05/14 07:38:59;;;;;;;7.15;5.30;;;;;;;21.61;100.00;96818.50;5062264;28;20068;-54
2022/05/14 07:41:28;;;;;;;11.10;5.55;;;;;;;22.12;100.00;96827.75;5062166;28;20064;-56
2022/05/14 07:44:00;;;;;;;8.27;5.72;;;;;;;21.16;100.00;96826.19;5057269;28;20072;-52
2022/05/14 07:46:31;;;;;;;11.18;6.00;;;;;;;21.07;100.00;96833.63;5057349;28;20072;-54
2022/05/14 07:49:01;;;;;;;8.63;5.95;;;;;;;21.69;100.00;96822.81;5058596;28;20103;-54
2022/05/14 07:51:30;;;;;;;;;;;;;;;21.43;100.00;96824.44;5051152;28;20519;-53
2022/05/14 07:53:59;;;;;;;6.88;4.68;;;;;;;22.09;100.00;96826.31;5070087;28;19967;-51
2022/05/14 07:56:28;;;;;;;7.30;4.30;;;;;;;21.86;100.00;96824.06;5069876;28;20071;-53
2022/05/14 07:58:56;;;;;;;5.93;3.80;;;;;;;22.30;100.00;96827.97;5066589;28;20068;-52
2022/05/14 08:01:24;;;;;;;7.22;4.70;;;;;;;22.11;100.00;96826.09;5069595;28;20751;-52
2022/05/14 08:03:53;;;;;;;7.85;4.43;;;;;;;22.18;100.00;96822.41;5061567;28;20107;-50
2022/05/14 08:06:22;;;;;;;9.05;5.20;;;;;;;22.03;100.00;96819.91;5067390;28;20557;-53
2022/05/14 08:08:51;;;;;;;7.57;4.45;;;;;;;21.83;100.00;96820.97;5063124;28;20417;-53
2022/05/14 08:11:21;;;;;;;12.00;5.18;;;;;;;21.24;100.00;96819.84;5064380;28;20072;-48
2022/05/14 08:13:50;;;;;;;6.55;4.70;;;;;;;21.57;100.00;96817.22;5060987;28;20080;-57
2022/05/14 08:16:19;;;;;;;6.38;4.00;;;;;;;21.07;100.00;96824.75;5067461;28;20087;-54
2022/05/14 08:18:48;;;;;;;10.88;4.25;;;;;;;20.97;100.00;96832.34;5068632;28;20091;-50
2022/05/14 08:26:51;;;;;;;6.70;3.50;;;;;;;22.27;100.00;96820.34;5060528;28;20628;-51
2022/05/14 08:29:20;;;;;;;6.90;3.17;;;;;;;21.91;100.00;96823.44;5064977;28;20522;-48
2022/05/14 08:31:49;;;;;;;6.78;3.08;;;;;;;22.23;82.86;96830.69;5061147;28;20545;-49
2022/05/14 08:34:18;;;;;;;5.45;2.53;;;;;;;21.48;91.87;96821.16;5060741;28;20076;-51
2022/05/14 08:36:46;;;;;;;6.28;2.30;;;;;;;21.68;69.83;96826.50;5059482;28;20079;-57
2022/05/14 08:39:16;;;;;;;6.38;2.67;;;;;;;22.20;79.22;96835.66;5060366;28;20056;-56
2022/05/14 08:41:48;;;;;;;5.38;3.05;;;;;;;22.40;78.26;96828.38;5057066;28;20241;-51
2022/05/14 08:44:21;;;;;;;6.93;2.90;;;;;;;22.04;86.41;96815.38;5063423;28;20079;-52
2022/05/14 08:46:54;;;;;;;5.50;2.22;;;;;;;21.71;56.76;96820.75;5061057;28;20463;-52
2022/05/14 08:49:26;;;;;;;3.60;1.70;;;;;;;22.10;55.81;96821.78;5058039;28;20527;-52
2022/05/14 08:51:56;;;;;;;5.63;1.95;;;;;;;22.06;67.37;96826.75;5062022;28;20068;-53
2022/05/14 08:54:24;;;;;;;4.28;1.92;;;;;;;21.99;65.15;96825.94;5064763;28;20064;-51
2022/05/14 08:56:57;;;;;;;7.00;1.75;;;;;;;21.91;69.83;96823.44;5058972;28;20060;-53
2022/05/14 08:59:43;;;;;;;4.40;1.70;;;;;;;21.72;58.81;96822.41;5062985;28;20068;-54
2022/05/14 09:02:15;;;;;;;7.15;2.20;;;;;;;21.89;66.47;96822.84;5060229;28;20064;-53
2022/05/14 09:04:44;;;;;;;5.72;2.45;;;;;;;22.16;68.23;96816.44;5062212;28;20062;-50
2022/05/14 09:07:13;;;;;;;6.05;2.40;;;;;;;22.18;84.62;96817.03;5061434;28;20502;-51
2022/05/14 09:09:49;;;;;;;6.78;3.05;;;;;;;22.33;83.24;96814.09;5064228;28;20080;-60
2022/05/14 09:12:19;;;;;;;5.10;2.60;;;;;;;22.43;70.90;96819.03;5062520;28;20063;-58
2022/05/14 09:14:52;;;;;;;;;;;;;;;22.39;65.85;96820.50;5061218;28;20426;-55
2022/05/14 09:17:22;;;;;;;5.68;2.40;;;;;;;22.56;69.50;96813.63;5061656;28;19955;-54
2022/05/14 09:19:53;;;;;;;6.75;2.58;;;;;;;22.97;76.65;96815.16;5061415;28;20060;-57
2022/05/14 09:22:29;;;;;;;5.70;2.60;;;;;;;22.70;69.55;96814.41;5065426;28;20075;-55
2022/05/14 09:25:05;;;;;;;5.38;2.70;;;;;;;22.80;62.08;96808.59;5061153;28;20479;-52
2022/05/14 09:27:40;;;;;;;4.60;2.50;;;;;;;22.71;64.04;96814.22;5062728;28;20064;-50
2022/05/14 09:30:13;;;;;;;6.65;2.97;;;;;;;22.95;64.82;96814.53;5052780;28;20517;-56
2022/05/14 09:32:44;;;;;;;5.20;2.78;;;;;;;22.95;82.20;96809.16;5063784;28;20542;-50
2022/05/14 09:35:16;;;;;;;;;;;;;;;23.12;86.80;96812.19;5065285;28;20080;-56
2022/05/14 09:37:50;;;;;;;7.10;2.60;;;;;;;22.61;94.38;96813.00;5062319;28;19964;-49
2022/05/14 09:40:24;;;;;;;7.00;3.20;;;;;;;22.86;77.87;96800.50;5062136;28;20084;-51
2022/05/14 09:42:54;;;;;;;8.38;2.92;;;;;;;22.92;75.22;96810.44;5064462;28;20087;-54
2022/05/14 09:45:31;;;;;;;8.63;3.35;;;;;;;22.32;75.09;96815.16;5063887;28;20085;-51
2022/05/14 09:48:10;;;;;;;7.82;3.20;;;;;;;22.78;67.68;96802.59;5057338;28;20075;-56
2022/05/14 09:50:40;;;;;;;6.07;3.40;;;;;;;22.45;96.73;96807.06;5064205;28;20064;-55
2022/05/14 09:53:09;;;;;;;5.90;3.35;;;;;;;22.67;79.29;96809.47;5060723;28;20079;-52
2022/05/14 09:55:59;;;;;;;7.18;3.10;;;;;;;22.67;75.44;96804.91;5062737;28;20056;-53
2022/05/14 09:58:34;;;;;;;8.35;3.40;;;;;;;23.16;76.76;96800.81;5060462;28;20510;-52
2022/05/14 10:01:08;;;;;;;4.05;3.00;;;;;;;22.34;81.60;96802.34;5060053;28;20084;-55
2022/05/14 10:03:57;;;;;;;6.55;3.20;;;;;;;22.68;80.35;96800.38;5061050;28;20352;-57
2022/05/14 10:06:32;;;;;;;8.57;3.40;;;;;;;22.52;82.81;96801.66;5062659;28;20075;-50
2022/05/14 10:09:09;;;;;;;6.72;3.30;;;;;;;22.73;78.37;96795.19;5061402;28;20075;-58
2022/05/14 10:11:40;;;;;;;5.75;3.10;;;;;;;23.21;74.26;96800.13;5061235;28;20079;-54
2022/05/14 10:14:28;;;;;;;6.40;3.47;;;;;;;23.16;71.33;96800.81;5065062;28;20083;-49
2022/05/14 10:17:05;;;;;;;6.93;3.13;;;;;;;23.45;64.88;96799.38;5070417;28;20064;-51
2022/05/14 10:19:51;;;;;;;6.65;3.63;;;;;;;22.44;72.54;96804.59;5064963;28;20094;-51
2022/05/14 10:22:24;;;;;;;5.50;3.53;;;;;;;22.84;74.87;96794.50;5066524;28;20076;-48
2022/05/14 10:27:54;;;;;;;6.30;3.70;;;;;;;23.34;67.95;96783.91;5065578;28;20389;-51
2022/05/14 10:30:28;;;;;;;6.07;3.28;;;;;;;23.49;75.34;96780.09;5062459;28;20149;-50
2022/05/14 10:33:02;;;;;;;7.00;4.20;;;;;;;23.65;82.51;96768.78;5059228;28;20033;-51
2022/05/14 10:35:34;;;;;;;11.35;3.33;;;;;;;23.74;72.02;96769.34;5060877;28;20781;-53
2022/05/14 10:38:06;;;;;;;5.57;3.53;;;;;;;24.00;70.31;96765.59;5062533;28;20063;-52
2022/05/14 10:40:37;;;;;;;6.07;3.72;;;;;;;23.91;69.74;96771.25;5062110;28;20060;-57
2022/05/14 10:43:21;;;;;;;8.05;4.35;;;;;;;23.78;100.00;96768.72;5064517;28;20087;-52
2022/05/14 10:45:51;;;;;;;5.55;3.70;;;;;;;23.82;88.62;96769.91;5062360;28;20068;-53
2022/05/14 10:48:37;;;;;;;7.22;3.78;;;;;;;24.06;70.95;96767.41;5060875;28;20067;-48
2022/05/14 10:51:07;;;;;;;5.40;3.55;;;;;;;23.73;82.25;96765.00;5061158;28;20067;-56
2022/05/14 10:53:39;;;;;;;8.38;4.10;;;;;;;23.58;100.00;96757.25;5060209;28;20538;-56
2022/05/14 10:56:12;;;;;;;8.50;3.90;;;;;;;23.66;89.74;96757.78;5060855;28;20071;-51
2022/05/14 10:58:45;;;;;;;7.20;3.95;;;;;;;23.48;84.04;96768.50;5061709;28;20068;-53
2022/05/14 11:01:28;;;;;;;6.80;3.80;;;;;;;23.73;68.32;96767.72;5061034;28;20087;-54
2022/05/14 11:04:00;;;;;;;6.88;4.03;;;;;;;23.70;68.25;96755.50;5059380;28;20099;-50
2022/05/14 11:06:32;;;;;;;6.68;3.67;;;;;;;24.04;60.71;96756.03;5061248;28;20083;-54
2022/05/14 11:09:28;;;;;;;4.07;3.15;;;;;;;23.78;64.38;96755.25;5062406;28;20071;-56
2022/05/14 11:12:00;;;;;;;6.97;3.45;;;;;;;23.56;100.00;96762.00;5057922;28;20064;-50
2022/05/14 11:14:37;;;;;;;6.35;2.60;;;;;;;23.57;79.63;96747.50;5061402;28;20076;-54
2022/05/14 11:17:17;;;;;;;6.90;2.78;;;;;;;23.81;59.71;96754.81;5063487;28;20064;-54
2022/05/14 11:19:47;;;;;;;6.82;3.08;;;;;;;23.56;79.98;96752.06;5064820;28;20083;-51
2022/05/14 11:22:21;;;;;;;6.40;2.80;;;;;;;23.49;73.13;96748.59;5064105;28;20080;-50
2022/05/14 11:24:50;;;;;;;4.00;2.58;;;;;;;23.19;81.37;96746.56;5065680;28;20080;-49
2022/05/14 11:27:27;;;;;;;6.50;2.90;;;;;;;23.42;100.00;96745.97;5062273;28;20471;-48
2022/05/14 11:29:59;;;;;;;5.38;2.88;;;;;;;23.26;100.00;96740.28;5064199;28;20060;-57
2022/05/14 11:32:27;;;;;;;6.05;3.00;;;;;;;23.57;70.46;96731.34;5066584;28;20061;-53
2022/05/14 11:34:59;;;;;;;5.78;3.15;;;;;;;23.46;89.49;96739.09;5065216;28;20087;-54
2022/05/14 11:37:34;;;;;;;6.72;2.88;;;;;;;23.59;96.54;96734.66;5064405;28;20088;-51
2022/05/14 11:40:26;;;;;;;7.18;3.38;;;;;;;23.38;100.00;96730.47;5062085;28;20072;-52
2022/05/14 11:43:09;;;;;;;5.60;2.72;;;;;;;23.38;78.99;96734.00;5063915;28;21276;-49
2022/05/14 11:45:40;;;;;;;4.32;2.60;;;;;;;23.54;74.81;96738.00;5063279;28;21519;-50
2022/05/14 11:48:11;;;;;;;5.28;3.05;;;;;;;23.83;65.80;96736.53;5065387;28;20076;-55
2022/05/14 11:50:48;;;;;;;4.93;2.80;;;;;;;24.04;73.87;96726.38;5064306;28;20067;-55
2022/05/14 11:53:23;;;;;;;3.15;2.30;;;;;;;23.93;89.72;96725.25;5056041;28;20071;-53
2022/05/14 11:55:54;;;;;;;6.32;2.72;;;;;;;23.64;84.64;96721.34;5059966;28;20087;-53
2022/05/14 11:58:29;;;;;;;4.82;2.50;;;;;;;23.09;62.64;96716.63;5059342;28;20096;-55
2022/05/14 12:00:58;;;;;;;5.47;2.70;;;;;;;23.62;70.25;96718.06;5044817;28;20076;-54
2022/05/14 12:03:29;;;;;;;5.82;2.65;;;;;;;23.81;67.06;96717.09;5054867;28;20097;-51